createdAt,value
2022-10-09T00:01:02.221Z,100.00
2022-10-09T00:03:28.556Z,100.00
2022-10-09T00:05:54.953Z,100.00
2022-10-09T00:08:21.281Z,100.00
2022-10-09T00:10:47.542Z,100.00
2022-10-09T00:13:13.921Z,100.00
2022-10-09T00:15:40.720Z,100.00
2022-10-09T00:18:07.946Z,100.00
2022-10-09T00:20:45.519Z,100.00
2022-10-09T00:23:14.607Z,100.00
2022-10-09T00:25:49.815Z,100.00
2022-10-09T00:28:16.107Z,100.00
2022-10-09T00:30:42.496Z,100.00
2022-10-09T00:33:08.783Z,100.00
2022-10-09T00:35:37.643Z,100.00
2022-10-09T00:38:03.895Z,100.00
2022-10-09T00:40:30.349Z,100.00
2022-10-09T00:42:57.234Z,100.00
2022-10-09T00:45:23.477Z,100.00
2022-10-09T00:48:15.956Z,100.00
2022-10-09T00:50:46.063Z,100.00
2022-10-09T00:53:13.927Z,100.00
2022-10-09T00:55:40.387Z,100.00
2022-10-09T00:58:06.871Z,100.00
2022-10-09T01:00:33.157Z,100.00
2022-10-09T01:02:59.607Z,100.00
2022-10-09T01:05:32.958Z,100.00
2022-10-09T01:08:09.696Z,100.00
2022-10-09T01:10:50.541Z,100.00
2022-10-09T01:13:16.861Z,100.00
2022-10-09T01:15:52.260Z,100.00
2022-10-09T01:18:27.794Z,100.00
2022-10-09T01:21:00.640Z,100.00
2022-10-09T01:23:33.064Z,100.00
2022-10-09T01:26:08.421Z,100.00
2022-10-09T01:28:36.078Z,100.00
2022-10-09T01:31:05.173Z,100.00
2022-10-09T01:33:32.385Z,100.00
2022-10-09T01:35:59.680Z,100.00
2022-10-09T01:38:28.073Z,100.00
2022-10-09T01:40:54.569Z,100.00
2022-10-09T01:43:20.853Z,100.00
2022-10-09T01:45:47.529Z,100.00
2022-10-09T01:48:16.617Z,100.00
2022-10-09T01:50:46.315Z,100.00
2022-10-09T01:53:17.220Z,100.00
2022-10-09T01:56:03.754Z,100.00
2022-10-09T01:58:33.601Z,100.00
2022-10-09T02:01:09.217Z,100.00
2022-10-09T02:03:36.380Z,100.00
2022-10-09T02:06:03.910Z,100.00
2022-10-09T02:08:32.268Z,100.00
2022-10-09T02:11:01.065Z,100.00
2022-10-09T02:13:27.487Z,100.00
2022-10-09T02:16:00.454Z,100.00
2022-10-09T02:18:32.942Z,100.00
2022-10-09T02:21:02.626Z,100.00
2022-10-09T02:23:28.885Z,100.00
2022-10-09T02:25:55.275Z,100.00
2022-10-09T02:28:21.998Z,100.00
2022-10-09T02:30:56.515Z,100.00
2022-10-09T02:33:34.931Z,100.00
2022-10-09T02:36:01.921Z,100.00
2022-10-09T02:38:28.185Z,100.00
2022-10-09T02:40:58.050Z,100.00
2022-10-09T02:43:24.313Z,100.00
2022-10-09T02:45:50.556Z,100.00
2022-10-09T02:48:16.790Z,100.00
2022-10-09T02:50:43.133Z,100.00
2022-10-09T02:53:09.414Z,100.00
2022-10-09T02:55:36.109Z,100.00
2022-10-09T02:58:02.442Z,100.00
2022-10-09T03:00:28.771Z,100.00
2022-10-09T03:02:55.332Z,100.00
2022-10-09T03:05:21.574Z,100.00
2022-10-09T03:07:51.483Z,100.00
2022-10-09T03:10:18.877Z,100.00
2022-10-09T03:12:45.292Z,100.00
2022-10-09T03:15:12.139Z,100.00
2022-10-09T03:17:38.557Z,100.00
2022-10-09T03:20:05.073Z,100.00
2022-10-09T03:22:31.739Z,100.00
2022-10-09T03:24:58.016Z,100.00
2022-10-09T03:27:24.264Z,100.00
2022-10-09T03:29:50.548Z,100.00
2022-10-09T03:32:16.901Z,100.00
2022-10-09T03:34:43.230Z,100.00
2022-10-09T03:37:09.524Z,100.00
2022-10-09T03:39:35.793Z,100.00
2022-10-09T03:42:02.071Z,100.00
2022-10-09T03:44:28.312Z,100.00
2022-10-09T03:46:54.649Z,100.00
2022-10-09T03:49:21.040Z,100.00
2022-10-09T03:51:47.290Z,100.00
2022-10-09T03:54:13.541Z,100.00
2022-10-09T03:56:39.792Z,100.00
2022-10-09T03:59:07.500Z,100.00
2022-10-09T04:01:33.826Z,100.00
2022-10-09T04:04:00.084Z,100.00
2022-10-09T04:06:26.360Z,100.00
2022-10-09T04:08:53.531Z,100.00
2022-10-09T04:11:19.853Z,100.00
2022-10-09T04:13:46.117Z,100.00
2022-10-09T04:16:12.833Z,100.00
2022-10-09T04:18:43.602Z,100.00
2022-10-09T04:21:10.172Z,100.00
2022-10-09T04:23:36.420Z,100.00
2022-10-09T04:26:02.747Z,100.00
2022-10-09T04:28:30.308Z,100.00
2022-10-09T04:31:00.141Z,100.00
2022-10-09T04:33:27.036Z,100.00
2022-10-09T04:35:54.103Z,100.00
2022-10-09T04:38:21.047Z,100.00
2022-10-09T04:41:00.773Z,100.00
2022-10-09T04:43:27.495Z,100.00
2022-10-09T04:45:53.890Z,100.00
2022-10-09T04:48:20.396Z,100.00
2022-10-09T04:50:46.933Z,100.00
2022-10-09T04:53:13.181Z,100.00
2022-10-09T04:55:43.082Z,100.00
2022-10-09T04:58:10.213Z,100.00
2022-10-09T05:00:39.864Z,100.00
2022-10-09T05:03:06.170Z,100.00
2022-10-09T05:05:33.046Z,100.00
2022-10-09T05:07:59.358Z,100.00
2022-10-09T05:10:25.596Z,100.00
2022-10-09T05:12:51.946Z,100.00
2022-10-09T05:15:19.505Z,100.00
2022-10-09T05:17:45.933Z,100.00
2022-10-09T05:20:12.253Z,100.00
2022-10-09T05:22:38.528Z,100.00
2022-10-09T05:25:05.066Z,100.00
2022-10-09T05:27:31.302Z,100.00
2022-10-09T05:29:57.614Z,100.00
2022-10-09T05:32:23.936Z,100.00
2022-10-09T05:34:50.279Z,100.00
2022-10-09T05:37:16.588Z,100.00
2022-10-09T05:39:42.843Z,100.00
2022-10-09T05:42:09.090Z,100.00
2022-10-09T05:44:35.423Z,100.00
2022-10-09T05:47:01.741Z,100.00
2022-10-09T05:49:28.055Z,100.00
2022-10-09T05:51:55.830Z,100.00
2022-10-09T05:54:22.188Z,100.00
2022-10-09T05:56:48.627Z,100.00
2022-10-09T05:59:19.367Z,100.00
2022-10-09T06:01:48.246Z,100.00
2022-10-09T06:04:16.035Z,100.00
2022-10-09T06:06:43.026Z,100.00
2022-10-09T06:09:11.081Z,100.00
2022-10-09T06:11:39.149Z,100.00
2022-10-09T06:14:06.236Z,100.00
2022-10-09T06:16:34.680Z,100.00
2022-10-09T06:19:01.434Z,100.00
2022-10-09T06:21:28.044Z,100.00
2022-10-09T06:23:55.577Z,100.00
2022-10-09T06:26:22.631Z,100.00
2022-10-09T06:28:48.957Z,100.00
2022-10-09T06:31:19.765Z,100.00
2022-10-09T06:33:46.746Z,100.00
2022-10-09T06:36:16.971Z,100.00
2022-10-09T06:38:44.250Z,100.00
2022-10-09T06:41:12.089Z,100.00
2022-10-09T06:43:38.832Z,100.00
2022-10-09T06:46:06.693Z,100.00
2022-10-09T06:48:33.571Z,100.00
2022-10-09T06:51:03.814Z,100.00
2022-10-09T06:53:30.187Z,100.00
2022-10-09T06:55:57.532Z,100.00
2022-10-09T06:58:24.032Z,100.00
2022-10-09T07:00:50.318Z,100.00
2022-10-09T07:03:16.621Z,100.00
2022-10-09T07:05:42.855Z,100.00
2022-10-09T07:08:09.114Z,100.00
2022-10-09T07:10:35.410Z,100.00
2022-10-09T07:13:01.710Z,100.00
2022-10-09T07:15:28.045Z,100.00
2022-10-09T07:17:54.369Z,100.00
2022-10-09T07:20:20.634Z,100.00
2022-10-09T07:22:47.267Z,100.00
2022-10-09T07:25:13.825Z,100.00
2022-10-09T07:27:40.120Z,100.00
2022-10-09T07:30:06.803Z,100.00
2022-10-09T07:32:33.097Z,100.00
2022-10-09T07:34:59.448Z,100.00
2022-10-09T07:37:25.764Z,100.00
2022-10-09T07:39:52.009Z,100.00
2022-10-09T07:42:18.308Z,100.00
2022-10-09T07:44:44.641Z,100.00
2022-10-09T07:47:10.936Z,100.00
2022-10-09T07:49:37.393Z,100.00
2022-10-09T07:52:03.687Z,100.00
2022-10-09T07:54:29.952Z,100.00
2022-10-09T07:56:56.236Z,100.00
2022-10-09T07:59:22.555Z,100.00
2022-10-09T08:01:48.834Z,100.00
2022-10-09T08:04:15.179Z,100.00
2022-10-09T08:06:41.695Z,100.00
2022-10-09T08:09:08.669Z,100.00
2022-10-09T08:11:35.579Z,100.00
2022-10-09T08:14:01.851Z,100.00
2022-10-09T08:16:28.578Z,100.00
2022-10-09T08:18:56.039Z,100.00
2022-10-09T08:21:22.744Z,100.00
2022-10-09T08:23:52.168Z,100.00
2022-10-09T08:26:19.542Z,100.00
2022-10-09T08:29:13.976Z,100.00
2022-10-09T08:31:40.533Z,100.00
2022-10-09T08:34:06.863Z,100.00
2022-10-09T08:36:33.198Z,100.00
2022-10-09T08:38:59.508Z,100.00
2022-10-09T08:41:29.037Z,100.00
2022-10-09T08:44:06.209Z,100.00
2022-10-09T08:46:39.803Z,100.00
2022-10-09T08:49:08.880Z,100.00
2022-10-09T08:51:37.347Z,100.00
2022-10-09T08:54:13.188Z,100.00
2022-10-09T08:56:39.461Z,100.00
2022-10-09T08:59:05.786Z,100.00
2022-10-09T09:02:04.371Z,100.00
2022-10-09T09:04:33.336Z,100.00
2022-10-09T09:07:13.907Z,100.00
2022-10-09T09:09:40.234Z,100.00
2022-10-09T09:12:34.142Z,100.00
2022-10-09T09:15:23.547Z,100.00
2022-10-09T09:18:08.297Z,100.00
2022-10-09T09:20:53.455Z,100.00
2022-10-09T09:23:23.902Z,100.00
2022-10-09T09:25:50.138Z,100.00
2022-10-09T09:28:21.999Z,100.00
2022-10-09T09:30:55.396Z,100.00
2022-10-09T09:33:44.430Z,100.00
2022-10-09T09:36:11.141Z,100.00
2022-10-09T09:38:54.216Z,100.00
2022-10-09T09:41:24.137Z,100.00
2022-10-09T09:43:50.568Z,100.00
2022-10-09T09:46:25.746Z,100.00
2022-10-09T09:48:52.104Z,100.00
2022-10-09T09:51:28.861Z,100.00
2022-10-09T09:53:57.656Z,100.00
2022-10-09T09:57:10.414Z,100.00
2022-10-09T09:59:37.786Z,100.00
2022-10-09T10:02:11.543Z,100.00
2022-10-09T10:04:43.093Z,100.00
2022-10-09T10:07:09.649Z,100.00
2022-10-09T10:09:36.504Z,100.00
2022-10-09T10:12:03.836Z,100.00
2022-10-09T10:14:31.167Z,100.00
2022-10-09T10:16:59.057Z,100.00
2022-10-09T10:19:35.158Z,100.00
2022-10-09T10:22:05.550Z,100.00
2022-10-09T10:24:42.670Z,100.00
2022-10-09T10:27:29.990Z,100.00
2022-10-09T10:29:58.897Z,100.00
2022-10-09T10:32:40.482Z,100.00
2022-10-09T10:35:30.144Z,100.00
2022-10-09T10:38:11.617Z,100.00
2022-10-09T10:40:42.387Z,100.00
2022-10-09T10:43:34.789Z,100.00
2022-10-09T10:46:20.044Z,100.00
2022-10-09T10:48:47.197Z,100.00
2022-10-09T10:51:18.708Z,100.00
2022-10-09T10:53:51.117Z,100.00
2022-10-09T10:56:29.670Z,100.00
2022-10-09T10:59:04.800Z,100.00
2022-10-09T11:01:50.706Z,100.00
2022-10-09T11:04:24.324Z,100.00
2022-10-09T11:07:05.900Z,100.00
2022-10-09T11:09:35.173Z,100.00
2022-10-09T11:12:46.815Z,100.00
2022-10-09T11:15:16.957Z,100.00
2022-10-09T11:18:03.471Z,100.00
2022-10-09T11:21:05.295Z,100.00
2022-10-09T11:23:43.666Z,100.00
2022-10-09T11:26:26.037Z,92.27
2022-10-09T11:28:56.495Z,92.65
2022-10-09T11:31:28.276Z,78.32
2022-10-09T11:33:58.973Z,86.36
2022-10-09T11:36:25.248Z,86.60
2022-10-09T11:38:54.752Z,69.06
2022-10-09T11:41:21.576Z,66.50
2022-10-09T11:44:03.208Z,64.24
2022-10-09T11:46:33.398Z,67.47
2022-10-09T11:49:04.115Z,64.71
2022-10-09T11:51:30.361Z,66.05
2022-10-09T11:53:57.452Z,66.19
2022-10-09T11:56:25.591Z,63.38
2022-10-09T11:59:18.141Z,58.24
2022-10-09T12:01:44.790Z,62.88
2022-10-09T12:04:13.962Z,61.33
2022-10-09T12:06:54.456Z,62.83
2022-10-09T12:09:36.486Z,58.87
2022-10-09T12:12:07.216Z,50.14
2022-10-09T12:14:34.942Z,53.55
2022-10-09T12:17:01.560Z,54.17
2022-10-09T12:19:30.327Z,56.63
2022-10-09T12:21:56.579Z,57.33
2022-10-09T12:24:25.074Z,53.52
2022-10-09T12:26:53.667Z,52.04
2022-10-09T12:29:33.870Z,51.14
2022-10-09T12:32:03.717Z,50.82
2022-10-09T12:34:37.121Z,51.91
2022-10-09T12:37:13.987Z,59.77
2022-10-09T12:39:40.336Z,66.96
2022-10-09T12:42:08.466Z,68.88
2022-10-09T12:44:38.408Z,61.16
2022-10-09T12:47:06.154Z,55.67
2022-10-09T12:49:32.547Z,52.86
2022-10-09T12:51:59.510Z,58.25
2022-10-09T12:54:27.198Z,60.05
2022-10-09T12:56:55.123Z,56.25
2022-10-09T12:59:22.776Z,54.72
2022-10-09T13:01:54.351Z,53.13
2022-10-09T13:04:24.724Z,56.37
2022-10-09T13:06:51.544Z,55.75
2022-10-09T13:09:20.375Z,58.54
2022-10-09T13:11:51.205Z,65.11
2022-10-09T13:14:26.361Z,74.14
2022-10-09T13:16:53.115Z,86.14
2022-10-09T13:19:24.849Z,100.00
2022-10-09T13:22:01.175Z,100.00
2022-10-09T13:24:28.142Z,100.00
2022-10-09T13:26:54.459Z,100.00
2022-10-09T13:29:21.010Z,100.00
2022-10-09T13:31:47.467Z,100.00
2022-10-09T13:34:14.150Z,100.00
2022-10-09T13:36:40.747Z,100.00
2022-10-09T13:39:07.008Z,100.00
2022-10-09T13:41:33.657Z,100.00
2022-10-09T13:44:00.018Z,100.00
2022-10-09T13:46:26.325Z,100.00
2022-10-09T13:48:52.604Z,100.00
2022-10-09T13:51:18.875Z,100.00
2022-10-09T13:53:45.135Z,100.00
2022-10-09T13:56:11.474Z,100.00
2022-10-09T13:58:37.747Z,100.00
2022-10-09T14:01:04.097Z,100.00
2022-10-09T14:03:30.412Z,100.00
2022-10-09T14:06:00.784Z,100.00
2022-10-09T14:08:27.378Z,100.00
2022-10-09T14:10:54.192Z,100.00
2022-10-09T14:13:21.403Z,100.00
2022-10-09T14:15:47.866Z,100.00
2022-10-09T14:18:14.184Z,100.00
2022-10-09T14:20:40.428Z,100.00
2022-10-09T14:23:06.719Z,100.00
2022-10-09T14:25:36.202Z,100.00
2022-10-09T14:28:03.291Z,100.00
2022-10-09T14:30:29.627Z,100.00
2022-10-09T14:32:56.066Z,100.00
2022-10-09T14:35:22.372Z,100.00
2022-10-09T14:37:48.864Z,100.00
2022-10-09T14:40:15.423Z,100.00
2022-10-09T14:42:42.063Z,100.00
2022-10-09T14:45:09.149Z,100.00
2022-10-09T14:47:35.446Z,100.00
2022-10-09T14:50:01.744Z,100.00
2022-10-09T14:52:28.015Z,100.00
2022-10-09T14:54:54.255Z,100.00
2022-10-09T14:57:20.506Z,100.00
2022-10-09T14:59:46.765Z,100.00
2022-10-09T15:02:14.548Z,100.00
2022-10-09T15:04:40.819Z,100.00
2022-10-09T15:07:07.112Z,100.00
2022-10-09T15:09:33.578Z,100.00
2022-10-09T15:11:59.877Z,100.00
2022-10-09T15:14:26.156Z,100.00
2022-10-09T15:16:52.454Z,100.00
2022-10-09T15:19:18.837Z,100.00
2022-10-09T15:21:45.181Z,100.00
2022-10-09T15:24:11.444Z,100.00
2022-10-09T15:26:38.252Z,100.00
2022-10-09T15:29:05.570Z,100.00
2022-10-09T15:31:36.470Z,100.00
2022-10-09T15:34:03.340Z,100.00
2022-10-09T15:36:30.635Z,100.00
2022-10-09T15:38:56.973Z,100.00
2022-10-09T15:41:23.248Z,100.00
2022-10-09T15:43:50.343Z,100.00
2022-10-09T15:46:16.655Z,100.00
2022-10-09T15:48:42.995Z,100.00
2022-10-09T15:51:13.404Z,100.00
2022-10-09T15:53:43.696Z,100.00
2022-10-09T15:56:11.791Z,100.00
2022-10-09T15:58:38.649Z,100.00
2022-10-09T16:01:12.410Z,100.00
2022-10-09T16:03:39.468Z,100.00
2022-10-09T16:06:08.209Z,100.00
2022-10-09T16:08:35.488Z,100.00
2022-10-09T16:11:04.155Z,100.00
2022-10-09T16:13:35.769Z,100.00
2022-10-09T16:16:04.475Z,100.00
2022-10-09T16:18:30.963Z,100.00
2022-10-09T16:21:03.181Z,100.00
2022-10-09T16:23:29.588Z,100.00
2022-10-09T16:25:56.970Z,100.00
2022-10-09T16:28:29.283Z,100.00
2022-10-09T16:30:55.815Z,100.00
2022-10-09T16:33:22.316Z,100.00
2022-10-09T16:35:48.760Z,100.00
2022-10-09T16:38:15.301Z,100.00
2022-10-09T16:41:01.337Z,100.00
2022-10-09T16:43:28.446Z,100.00
2022-10-09T16:45:54.693Z,100.00
2022-10-09T16:48:21.048Z,100.00
2022-10-09T16:50:47.326Z,100.00
2022-10-09T16:53:13.652Z,100.00
2022-10-09T16:55:39.895Z,100.00
2022-10-09T16:58:06.168Z,100.00
2022-10-09T17:00:32.451Z,100.00
2022-10-09T17:02:58.794Z,100.00
2022-10-09T17:05:25.453Z,100.00
2022-10-09T17:07:52.136Z,100.00
2022-10-09T17:10:18.675Z,100.00
2022-10-09T17:12:44.945Z,100.00
2022-10-09T17:15:12.666Z,100.00
2022-10-09T17:17:38.959Z,100.00
2022-10-09T17:20:05.401Z,100.00
2022-10-09T17:22:31.670Z,100.00
2022-10-09T17:24:57.917Z,100.00
2022-10-09T17:27:24.182Z,100.00
2022-10-09T17:29:50.468Z,100.00
2022-10-09T17:32:16.921Z,100.00
2022-10-09T17:34:45.752Z,100.00
2022-10-09T17:37:12.578Z,100.00
2022-10-09T17:39:38.853Z,100.00
2022-10-09T17:42:05.145Z,100.00
2022-10-09T17:44:31.942Z,100.00
2022-10-09T17:46:58.233Z,100.00
2022-10-09T17:49:24.491Z,100.00
2022-10-09T17:51:52.565Z,100.00
2022-10-09T17:54:18.841Z,100.00
2022-10-09T17:56:45.197Z,100.00
2022-10-09T17:59:12.172Z,100.00
2022-10-09T18:01:39.115Z,100.00
2022-10-09T18:04:05.447Z,100.00
2022-10-09T18:06:32.950Z,100.00
2022-10-09T18:08:59.256Z,100.00
2022-10-09T18:11:26.490Z,100.00
2022-10-09T18:13:53.138Z,100.00
2022-10-09T18:16:22.744Z,100.00
2022-10-09T18:18:49.122Z,100.00
2022-10-09T18:21:19.123Z,100.00
2022-10-09T18:23:46.431Z,100.00
2022-10-09T18:26:14.617Z,100.00
2022-10-09T18:28:42.628Z,100.00
2022-10-09T18:31:12.020Z,100.00
2022-10-09T18:33:38.306Z,100.00
2022-10-09T18:36:09.350Z,100.00
2022-10-09T18:38:35.635Z,100.00
2022-10-09T18:41:02.026Z,100.00
2022-10-09T18:43:28.269Z,100.00
2022-10-09T18:45:54.830Z,100.00
2022-10-09T18:48:21.799Z,100.00
2022-10-09T18:50:48.430Z,100.00
2022-10-09T18:53:14.977Z,100.00
2022-10-09T18:55:42.516Z,100.00
2022-10-09T18:58:08.893Z,100.00
2022-10-09T19:00:37.048Z,100.00
2022-10-09T19:03:03.409Z,100.00
2022-10-09T19:05:29.668Z,100.00
2022-10-09T19:07:56.239Z,100.00
2022-10-09T19:10:25.500Z,100.00
2022-10-09T19:12:52.487Z,100.00
2022-10-09T19:15:19.501Z,100.00
2022-10-09T19:17:45.912Z,100.00
2022-10-09T19:20:12.231Z,100.00
2022-10-09T19:22:38.543Z,100.00
2022-10-09T19:25:05.406Z,100.00
2022-10-09T19:27:32.439Z,100.00
2022-10-09T19:29:58.881Z,100.00
2022-10-09T19:32:25.162Z,100.00
2022-10-09T19:34:51.748Z,100.00
2022-10-09T19:37:18.493Z,100.00
2022-10-09T19:39:48.376Z,100.00
2022-10-09T19:42:18.717Z,100.00
2022-10-09T19:44:45.831Z,100.00
2022-10-09T19:47:13.331Z,100.00
2022-10-09T19:49:39.944Z,100.00
2022-10-09T19:52:06.247Z,100.00
2022-10-09T19:54:33.128Z,100.00
2022-10-09T19:56:59.719Z,100.00
2022-10-09T19:59:25.984Z,100.00
2022-10-09T20:01:57.218Z,100.00
2022-10-09T20:04:23.975Z,100.00
2022-10-09T20:06:50.471Z,100.00
2022-10-09T20:09:16.804Z,100.00
2022-10-09T20:11:43.505Z,100.00
2022-10-09T20:14:10.265Z,100.00
2022-10-09T20:16:36.680Z,100.00
2022-10-09T20:19:04.027Z,100.00
2022-10-09T20:21:31.534Z,100.00
2022-10-09T20:23:58.126Z,100.00
2022-10-09T20:26:24.591Z,100.00
2022-10-09T20:28:53.793Z,100.00
2022-10-09T20:31:21.200Z,100.00
2022-10-09T20:33:48.438Z,100.00
2022-10-09T20:36:20.925Z,100.00
2022-10-09T20:38:47.674Z,100.00
2022-10-09T20:41:13.988Z,100.00
2022-10-09T20:43:40.544Z,100.00
2022-10-09T20:46:10.833Z,100.00
2022-10-09T20:48:37.260Z,100.00
2022-10-09T20:51:03.686Z,100.00
2022-10-09T20:53:30.004Z,100.00
2022-10-09T20:56:03.915Z,100.00
2022-10-09T20:58:30.406Z,100.00
2022-10-09T21:00:56.983Z,100.00
2022-10-09T21:03:23.492Z,100.00
2022-10-09T21:05:49.923Z,100.00
2022-10-09T21:08:16.563Z,100.00
2022-10-09T21:10:46.633Z,100.00
2022-10-09T21:13:13.077Z,100.00
2022-10-09T21:15:43.746Z,100.00
2022-10-09T21:18:10.783Z,100.00
2022-10-09T21:20:40.670Z,100.00
2022-10-09T21:23:07.389Z,100.00
2022-10-09T21:25:34.090Z,100.00
2022-10-09T21:28:00.656Z,100.00
2022-10-09T21:30:27.286Z,100.00
2022-10-09T21:32:53.728Z,100.00
2022-10-09T21:35:20.171Z,100.00
2022-10-09T21:37:46.578Z,100.00
2022-10-09T21:40:12.845Z,100.00
2022-10-09T21:42:39.239Z,100.00
2022-10-09T21:45:05.721Z,100.00
2022-10-09T21:47:32.030Z,100.00
2022-10-09T21:49:58.317Z,100.00
2022-10-09T21:52:24.604Z,100.00
2022-10-09T21:54:50.842Z,100.00
2022-10-09T21:57:17.196Z,100.00
2022-10-09T21:59:43.455Z,100.00
2022-10-09T22:02:09.698Z,100.00
2022-10-09T22:04:35.996Z,100.00
2022-10-09T22:07:02.288Z,100.00
2022-10-09T22:09:28.606Z,100.00
2022-10-09T22:11:56.698Z,100.00
2022-10-09T22:14:22.951Z,100.00
2022-10-09T22:16:49.194Z,100.00
2022-10-09T22:19:15.444Z,100.00
2022-10-09T22:21:41.720Z,100.00
2022-10-09T22:24:08.075Z,100.00
2022-10-09T22:26:34.375Z,100.00
2022-10-09T22:29:00.657Z,100.00
2022-10-09T22:31:27.053Z,100.00
2022-10-09T22:33:54.693Z,100.00
2022-10-09T22:36:22.117Z,100.00
2022-10-09T22:38:48.412Z,100.00
2022-10-09T22:41:18.791Z,100.00
2022-10-09T22:43:46.308Z,100.00
2022-10-09T22:46:20.092Z,100.00
2022-10-09T22:48:46.635Z,100.00
2022-10-09T22:51:14.042Z,100.00
2022-10-09T22:53:40.653Z,100.00
2022-10-09T22:56:08.175Z,100.00
2022-10-09T22:58:34.976Z,100.00
2022-10-09T23:01:02.833Z,100.00
2022-10-09T23:03:29.099Z,100.00
2022-10-09T23:05:55.326Z,100.00
2022-10-09T23:08:21.568Z,100.00
2022-10-09T23:10:47.834Z,100.00
2022-10-09T23:13:14.101Z,100.00
2022-10-09T23:15:40.368Z,100.00
2022-10-09T23:18:06.660Z,100.00
2022-10-09T23:20:35.655Z,100.00
2022-10-09T23:23:01.905Z,100.00
2022-10-09T23:25:28.157Z,100.00
2022-10-09T23:27:54.428Z,100.00
2022-10-09T23:30:20.740Z,100.00
2022-10-09T23:32:47.148Z,100.00
2022-10-09T23:35:13.590Z,100.00
2022-10-09T23:37:39.835Z,100.00
2022-10-09T23:40:06.342Z,100.00
2022-10-09T23:42:32.595Z,100.00
2022-10-09T23:44:58.835Z,100.00
2022-10-09T23:47:25.063Z,100.00
2022-10-09T23:49:51.327Z,100.00
2022-10-09T23:52:17.617Z,100.00
2022-10-09T23:54:43.857Z,100.00
2022-10-09T23:57:10.099Z,100.00
2022-10-09T23:59:36.356Z,100.00
